sensor_id;sensor_type;location;lat;lon;timestamp;temperature;humidity
23335;DHT22;11839;48.598;8.870;2023-02-18T00:01:17;13.50;99.90
23335;DHT22;11839;48.598;8.870;2023-02-18T00:03:45;13.60;99.90
23335;DHT22;11839;48.598;8.870;2023-02-18T00:06:14;13.80;99.90
23335;DHT22;11839;48.598;8.870;2023-02-18T00:08:42;13.60;99.90
23335;DHT22;11839;48.598;8.870;2023-02-18T00:11:11;13.50;99.90
23335;DHT22;11839;48.598;8.870;2023-02-18T00:13:38;13.40;99.90
23335;DHT22;11839;48.598;8.870;2023-02-18T00:16:06;13.30;99.90
23335;DHT22;11839;48.598;8.870;2023-02-18T00:18:34;13.30;99.90
23335;DHT22;11839;48.598;8.870;2023-02-18T00:21:02;13.40;99.90
23335;DHT22;11839;48.598;8.870;2023-02-18T00:23:29;13.40;99.90
23335;DHT22;11839;48.598;8.870;2023-02-18T00:26:00;13.50;99.90
23335;DHT22;11839;48.598;8.870;2023-02-18T00:28:28;13.20;99.90
23335;DHT22;11839;48.598;8.870;2023-02-18T00:30:55;13.10;99.90
23335;DHT22;11839;48.598;8.870;2023-02-18T00:33:22;13.20;99.90
23335;DHT22;11839;48.598;8.870;2023-02-18T00:35:49;13.40;99.90
23335;DHT22;11839;48.598;8.870;2023-02-18T00:38:16;13.20;99.90
23335;DHT22;11839;48.598;8.870;2023-02-18T00:40:43;13.30;99.90
23335;DHT22;11839;48.598;8.870;2023-02-18T00:43:09;13.40;99.90
23335;DHT22;11839;48.598;8.870;2023-02-18T00:45:38;13.60;99.90
23335;DHT22;11839;48.598;8.870;2023-02-18T00:48:04;13.70;99.90
23335;DHT22;11839;48.598;8.870;2023-02-18T00:50:31;13.70;99.90
23335;DHT22;11839;48.598;8.870;2023-02-18T00:52:58;13.70;99.90
23335;DHT22;11839;48.598;8.870;2023-02-18T00:55:25;13.70;99.90
23335;DHT22;11839;48.598;8.870;2023-02-18T00:57:52;13.40;99.90
23335;DHT22;11839;48.598;8.870;2023-02-18T01:00:19;13.50;99.90
23335;DHT22;11839;48.598;8.870;2023-02-18T01:02:47;13.50;99.90
23335;DHT22;11839;48.598;8.870;2023-02-18T01:05:18;13.40;99.90
23335;DHT22;11839;48.598;8.870;2023-02-18T01:07:45;13.50;99.90
23335;DHT22;11839;48.598;8.870;2023-02-18T01:10:12;13.50;99.90
23335;DHT22;11839;48.598;8.870;2023-02-18T01:12:39;13.60;99.90
23335;DHT22;11839;48.598;8.870;2023-02-18T01:15:07;13.60;99.90
23335;DHT22;11839;48.598;8.870;2023-02-18T01:17:34;13.60;99.90
23335;DHT22;11839;48.598;8.870;2023-02-18T01:20:03;13.40;99.90
23335;DHT22;11839;48.598;8.870;2023-02-18T01:22:30;13.40;99.90
23335;DHT22;11839;48.598;8.870;2023-02-18T01:24:56;13.60;99.90
23335;DHT22;11839;48.598;8.870;2023-02-18T01:27:23;13.40;99.90
23335;DHT22;11839;48.598;8.870;2023-02-18T01:29:50;13.30;99.90
23335;DHT22;11839;48.598;8.870;2023-02-18T01:32:17;13.40;99.90
23335;DHT22;11839;48.598;8.870;2023-02-18T01:34:44;13.50;99.90
23335;DHT22;11839;48.598;8.870;2023-02-18T01:37:12;13.40;99.90
23335;DHT22;11839;48.598;8.870;2023-02-18T01:39:39;13.30;99.90
23335;DHT22;11839;48.598;8.870;2023-02-18T01:42:16;13.30;99.90
23335;DHT22;11839;48.598;8.870;2023-02-18T01:44:45;13.20;99.90
23335;DHT22;11839;48.598;8.870;2023-02-18T01:47:12;13.10;99.90
23335;DHT22;11839;48.598;8.870;2023-02-18T01:49:39;13.00;99.90
23335;DHT22;11839;48.598;8.870;2023-02-18T01:52:09;12.80;99.90
23335;DHT22;11839;48.598;8.870;2023-02-18T01:54:41;12.80;99.90
23335;DHT22;11839;48.598;8.870;2023-02-18T01:57:10;13.10;99.90
23335;DHT22;11839;48.598;8.870;2023-02-18T01:59:40;13.10;99.90
23335;DHT22;11839;48.598;8.870;2023-02-18T02:02:11;13.20;99.90
23335;DHT22;11839;48.598;8.870;2023-02-18T02:04:39;13.30;99.90
23335;DHT22;11839;48.598;8.870;2023-02-18T02:07:06;13.30;99.90
23335;DHT22;11839;48.598;8.870;2023-02-18T02:09:33;13.30;99.90
23335;DHT22;11839;48.598;8.870;2023-02-18T02:12:25;13.50;99.90
23335;DHT22;11839;48.598;8.870;2023-02-18T02:15:07;13.60;99.90
23335;DHT22;11839;48.598;8.870;2023-02-18T02:17:43;13.50;99.90
23335;DHT22;11839;48.598;8.870;2023-02-18T02:20:29;13.50;99.90
23335;DHT22;11839;48.598;8.870;2023-02-18T02:26:44;13.30;99.90
23335;DHT22;11839;48.598;8.870;2023-02-18T02:29:53;13.20;99.90
23335;DHT22;11839;48.598;8.870;2023-02-18T02:32:35;13.30;99.90
23335;DHT22;11839;48.598;8.870;2023-02-18T02:35:12;13.20;99.90
23335;DHT22;11839;48.598;8.870;2023-02-18T02:37:45;12.90;99.90
23335;DHT22;11839;48.598;8.870;2023-02-18T02:40:20;12.60;99.90
23335;DHT22;11839;48.598;8.870;2023-02-18T02:42:57;12.80;99.90
23335;DHT22;11839;48.598;8.870;2023-02-18T02:45:32;12.90;99.90
23335;DHT22;11839;48.598;8.870;2023-02-18T02:48:09;13.10;99.90
23335;DHT22;11839;48.598;8.870;2023-02-18T02:50:43;12.90;99.90
23335;DHT22;11839;48.598;8.870;2023-02-18T02:53:15;12.80;99.90
23335;DHT22;11839;48.598;8.870;2023-02-18T02:55:44;12.70;99.90
23335;DHT22;11839;48.598;8.870;2023-02-18T02:58:14;12.80;99.90
23335;DHT22;11839;48.598;8.870;2023-02-18T03:00:49;12.80;99.90
23335;DHT22;11839;48.598;8.870;2023-02-18T03:03:38;12.70;99.90
23335;DHT22;11839;48.598;8.870;2023-02-18T03:06:22;12.70;99.90
23335;DHT22;11839;48.598;8.870;2023-02-18T03:08:58;12.50;99.90
23335;DHT22;11839;48.598;8.870;2023-02-18T03:11:28;12.40;99.90
23335;DHT22;11839;48.598;8.870;2023-02-18T03:14:04;12.40;99.90
23335;DHT22;11839;48.598;8.870;2023-02-18T03:16:36;12.30;99.90
23335;DHT22;11839;48.598;8.870;2023-02-18T03:19:11;12.20;99.90
23335;DHT22;11839;48.598;8.870;2023-02-18T03:21:42;12.20;99.90
23335;DHT22;11839;48.598;8.870;2023-02-18T03:24:15;12.20;99.90
23335;DHT22;11839;48.598;8.870;2023-02-18T03:26:47;12.10;99.90
23335;DHT22;11839;48.598;8.870;2023-02-18T03:29:17;12.20;99.90
23335;DHT22;11839;48.598;8.870;2023-02-18T03:31:49;12.20;99.90
23335;DHT22;11839;48.598;8.870;2023-02-18T03:34:22;12.10;99.90
23335;DHT22;11839;48.598;8.870;2023-02-18T03:36:52;11.80;99.90
23335;DHT22;11839;48.598;8.870;2023-02-18T03:39:20;11.70;99.90
23335;DHT22;11839;48.598;8.870;2023-02-18T03:41:48;11.90;99.90
23335;DHT22;11839;48.598;8.870;2023-02-18T03:44:15;11.80;99.90
23335;DHT22;11839;48.598;8.870;2023-02-18T03:46:43;11.70;99.90
23335;DHT22;11839;48.598;8.870;2023-02-18T03:49:12;11.70;99.90
23335;DHT22;11839;48.598;8.870;2023-02-18T03:51:39;11.70;99.90
23335;DHT22;11839;48.598;8.870;2023-02-18T03:54:08;11.50;99.90
23335;DHT22;11839;48.598;8.870;2023-02-18T03:56:36;11.50;99.90
23335;DHT22;11839;48.598;8.870;2023-02-18T03:59:03;11.40;99.90
23335;DHT22;11839;48.598;8.870;2023-02-18T04:01:30;11.50;99.90
23335;DHT22;11839;48.598;8.870;2023-02-18T04:03:56;11.60;99.90
23335;DHT22;11839;48.598;8.870;2023-02-18T04:06:23;11.40;99.90
23335;DHT22;11839;48.598;8.870;2023-02-18T04:08:50;11.60;99.90
23335;DHT22;11839;48.598;8.870;2023-02-18T04:11:18;11.80;99.90
23335;DHT22;11839;48.598;8.870;2023-02-18T04:13:45;11.80;99.90
23335;DHT22;11839;48.598;8.870;2023-02-18T04:16:13;11.60;99.90
23335;DHT22;11839;48.598;8.870;2023-02-18T04:18:40;11.60;99.90
23335;DHT22;11839;48.598;8.870;2023-02-18T04:21:06;11.90;99.90
23335;DHT22;11839;48.598;8.870;2023-02-18T04:23:33;11.90;99.90
23335;DHT22;11839;48.598;8.870;2023-02-18T04:26:00;11.70;99.90
23335;DHT22;11839;48.598;8.870;2023-02-18T04:28:28;11.80;99.90
23335;DHT22;11839;48.598;8.870;2023-02-18T04:30:55;11.80;99.90
23335;DHT22;11839;48.598;8.870;2023-02-18T04:33:22;11.80;99.90
23335;DHT22;11839;48.598;8.870;2023-02-18T04:35:49;11.50;99.90
23335;DHT22;11839;48.598;8.870;2023-02-18T04:38:15;11.40;99.90
23335;DHT22;11839;48.598;8.870;2023-02-18T04:40:42;11.60;99.90
23335;DHT22;11839;48.598;8.870;2023-02-18T04:43:09;11.70;99.90
23335;DHT22;11839;48.598;8.870;2023-02-18T04:45:37;11.70;99.90
23335;DHT22;11839;48.598;8.870;2023-02-18T04:48:04;11.90;99.90
23335;DHT22;11839;48.598;8.870;2023-02-18T04:50:31;11.90;99.90
23335;DHT22;11839;48.598;8.870;2023-02-18T04:52:58;11.70;99.90
23335;DHT22;11839;48.598;8.870;2023-02-18T04:55:25;11.80;99.90
23335;DHT22;11839;48.598;8.870;2023-02-18T04:57:51;11.60;99.90
23335;DHT22;11839;48.598;8.870;2023-02-18T05:00:19;11.70;99.90
23335;DHT22;11839;48.598;8.870;2023-02-18T05:02:47;11.60;99.90
23335;DHT22;11839;48.598;8.870;2023-02-18T05:05:14;11.40;99.90
23335;DHT22;11839;48.598;8.870;2023-02-18T05:07:41;11.50;99.90
23335;DHT22;11839;48.598;8.870;2023-02-18T05:10:09;11.60;99.90
23335;DHT22;11839;48.598;8.870;2023-02-18T05:12:36;11.80;99.90
23335;DHT22;11839;48.598;8.870;2023-02-18T05:15:03;11.80;99.90
23335;DHT22;11839;48.598;8.870;2023-02-18T05:17:30;11.70;99.90
23335;DHT22;11839;48.598;8.870;2023-02-18T05:19:58;11.70;99.90
23335;DHT22;11839;48.598;8.870;2023-02-18T05:22:25;11.70;99.90
23335;DHT22;11839;48.598;8.870;2023-02-18T05:24:52;11.50;99.90
23335;DHT22;11839;48.598;8.870;2023-02-18T05:27:19;11.60;99.90
23335;DHT22;11839;48.598;8.870;2023-02-18T05:29:46;11.70;99.90
23335;DHT22;11839;48.598;8.870;2023-02-18T05:32:12;11.70;99.90
23335;DHT22;11839;48.598;8.870;2023-02-18T05:34:39;11.70;99.90
23335;DHT22;11839;48.598;8.870;2023-02-18T05:37:07;12.00;99.90
23335;DHT22;11839;48.598;8.870;2023-02-18T05:39:34;12.00;99.90
23335;DHT22;11839;48.598;8.870;2023-02-18T05:42:02;12.00;99.90
23335;DHT22;11839;48.598;8.870;2023-02-18T05:44:28;12.00;99.90
23335;DHT22;11839;48.598;8.870;2023-02-18T05:46:55;12.00;99.90
23335;DHT22;11839;48.598;8.870;2023-02-18T05:49:22;12.30;99.90
23335;DHT22;11839;48.598;8.870;2023-02-18T05:51:49;12.20;99.90
23335;DHT22;11839;48.598;8.870;2023-02-18T05:54:18;12.20;99.90
23335;DHT22;11839;48.598;8.870;2023-02-18T05:56:45;12.10;99.90
23335;DHT22;11839;48.598;8.870;2023-02-18T05:59:11;12.20;99.90
23335;DHT22;11839;48.598;8.870;2023-02-18T06:01:38;12.20;99.90
23335;DHT22;11839;48.598;8.870;2023-02-18T06:04:05;12.10;99.90
23335;DHT22;11839;48.598;8.870;2023-02-18T06:06:32;12.20;99.90
23335;DHT22;11839;48.598;8.870;2023-02-18T06:08:59;12.10;99.90
23335;DHT22;11839;48.598;8.870;2023-02-18T06:11:27;12.20;99.90
23335;DHT22;11839;48.598;8.870;2023-02-18T06:13:54;12.30;99.90
23335;DHT22;11839;48.598;8.870;2023-02-18T06:16:21;12.20;99.90
23335;DHT22;11839;48.598;8.870;2023-02-18T06:18:47;12.30;99.90
23335;DHT22;11839;48.598;8.870;2023-02-18T06:21:14;12.30;99.90
23335;DHT22;11839;48.598;8.870;2023-02-18T06:23:41;12.40;99.90
23335;DHT22;11839;48.598;8.870;2023-02-18T06:26:08;12.50;99.90
23335;DHT22;11839;48.598;8.870;2023-02-18T06:28:36;12.60;99.90
23335;DHT22;11839;48.598;8.870;2023-02-18T06:31:03;12.70;99.90
23335;DHT22;11839;48.598;8.870;2023-02-18T06:33:30;12.50;99.90
23335;DHT22;11839;48.598;8.870;2023-02-18T06:35:58;12.50;99.90
23335;DHT22;11839;48.598;8.870;2023-02-18T06:38:26;12.40;99.90
23335;DHT22;11839;48.598;8.870;2023-02-18T06:40:52;12.30;99.90
23335;DHT22;11839;48.598;8.870;2023-02-18T06:43:20;12.30;99.90
23335;DHT22;11839;48.598;8.870;2023-02-18T06:45:48;12.40;99.90
23335;DHT22;11839;48.598;8.870;2023-02-18T06:48:15;12.50;99.90
23335;DHT22;11839;48.598;8.870;2023-02-18T06:50:42;12.80;99.90
23335;DHT22;11839;48.598;8.870;2023-02-18T06:53:09;12.80;99.90
23335;DHT22;11839;48.598;8.870;2023-02-18T06:55:37;12.80;99.90
23335;DHT22;11839;48.598;8.870;2023-02-18T06:58:04;12.70;99.90
23335;DHT22;11839;48.598;8.870;2023-02-18T07:00:31;12.60;99.90
23335;DHT22;11839;48.598;8.870;2023-02-18T07:02:59;12.40;99.90
23335;DHT22;11839;48.598;8.870;2023-02-18T07:05:26;12.40;99.90
23335;DHT22;11839;48.598;8.870;2023-02-18T07:07:53;12.30;99.90
23335;DHT22;11839;48.598;8.870;2023-02-18T07:10:20;12.50;99.90
23335;DHT22;11839;48.598;8.870;2023-02-18T07:12:47;12.60;99.90
23335;DHT22;11839;48.598;8.870;2023-02-18T07:15:14;12.70;99.90
23335;DHT22;11839;48.598;8.870;2023-02-18T07:17:41;12.70;99.90
23335;DHT22;11839;48.598;8.870;2023-02-18T07:20:10;12.70;99.90
23335;DHT22;11839;48.598;8.870;2023-02-18T07:22:37;12.70;99.90
23335;DHT22;11839;48.598;8.870;2023-02-18T07:25:04;13.00;99.90
23335;DHT22;11839;48.598;8.870;2023-02-18T07:27:31;13.10;99.90
23335;DHT22;11839;48.598;8.870;2023-02-18T07:29:58;13.20;99.90
23335;DHT22;11839;48.598;8.870;2023-02-18T07:32:24;13.20;99.90
23335;DHT22;11839;48.598;8.870;2023-02-18T07:34:51;12.90;99.90
23335;DHT22;11839;48.598;8.870;2023-02-18T07:37:20;13.00;99.90
23335;DHT22;11839;48.598;8.870;2023-02-18T07:39:47;13.20;99.90
23335;DHT22;11839;48.598;8.870;2023-02-18T07:42:13;13.30;99.90
23335;DHT22;11839;48.598;8.870;2023-02-18T07:44:41;13.30;99.90
23335;DHT22;11839;48.598;8.870;2023-02-18T07:47:09;13.30;99.90
23335;DHT22;11839;48.598;8.870;2023-02-18T07:49:38;13.40;99.90
23335;DHT22;11839;48.598;8.870;2023-02-18T07:52:05;13.30;99.90
23335;DHT22;11839;48.598;8.870;2023-02-18T07:54:33;13.30;99.90
23335;DHT22;11839;48.598;8.870;2023-02-18T07:57:00;13.30;99.90
23335;DHT22;11839;48.598;8.870;2023-02-18T07:59:27;13.30;99.90
23335;DHT22;11839;48.598;8.870;2023-02-18T08:01:54;13.40;99.90
23335;DHT22;11839;48.598;8.870;2023-02-18T08:04:20;13.50;99.90
23335;DHT22;11839;48.598;8.870;2023-02-18T08:06:48;13.30;99.90
23335;DHT22;11839;48.598;8.870;2023-02-18T08:09:16;13.30;99.90
23335;DHT22;11839;48.598;8.870;2023-02-18T08:11:44;13.50;99.90
23335;DHT22;11839;48.598;8.870;2023-02-18T08:14:11;13.30;99.90
23335;DHT22;11839;48.598;8.870;2023-02-18T08:16:38;13.30;99.90
23335;DHT22;11839;48.598;8.870;2023-02-18T08:19:04;13.30;99.90
23335;DHT22;11839;48.598;8.870;2023-02-18T08:21:32;13.40;99.90
23335;DHT22;11839;48.598;8.870;2023-02-18T08:23:59;13.30;99.90
23335;DHT22;11839;48.598;8.870;2023-02-18T08:26:26;13.30;99.90
23335;DHT22;11839;48.598;8.870;2023-02-18T08:28:54;13.20;99.90
23335;DHT22;11839;48.598;8.870;2023-02-18T08:31:23;13.20;99.90
23335;DHT22;11839;48.598;8.870;2023-02-18T08:33:52;13.40;99.90
23335;DHT22;11839;48.598;8.870;2023-02-18T08:36:19;13.50;99.90
23335;DHT22;11839;48.598;8.870;2023-02-18T08:38:46;13.40;99.90
23335;DHT22;11839;48.598;8.870;2023-02-18T08:41:13;13.50;99.90
23335;DHT22;11839;48.598;8.870;2023-02-18T08:43:41;13.50;99.90
23335;DHT22;11839;48.598;8.870;2023-02-18T08:46:10;13.70;99.90
23335;DHT22;11839;48.598;8.870;2023-02-18T08:48:37;13.90;99.90
23335;DHT22;11839;48.598;8.870;2023-02-18T08:51:13;13.90;99.90
23335;DHT22;11839;48.598;8.870;2023-02-18T08:53:40;13.90;99.90
23335;DHT22;11839;48.598;8.870;2023-02-18T08:56:08;13.80;99.90
23335;DHT22;11839;48.598;8.870;2023-02-18T08:58:35;13.80;99.90
23335;DHT22;11839;48.598;8.870;2023-02-18T09:01:04;13.60;99.90
23335;DHT22;11839;48.598;8.870;2023-02-18T09:03:33;13.70;99.90
23335;DHT22;11839;48.598;8.870;2023-02-18T09:06:00;13.80;99.90
23335;DHT22;11839;48.598;8.870;2023-02-18T09:08:27;13.80;99.90
23335;DHT22;11839;48.598;8.870;2023-02-18T09:10:55;13.60;99.90
23335;DHT22;11839;48.598;8.870;2023-02-18T09:13:22;13.40;99.90
23335;DHT22;11839;48.598;8.870;2023-02-18T09:15:55;13.40;99.90
23335;DHT22;11839;48.598;8.870;2023-02-18T09:18:22;13.50;99.90
23335;DHT22;11839;48.598;8.870;2023-02-18T09:20:54;13.50;99.90
23335;DHT22;11839;48.598;8.870;2023-02-18T09:23:21;13.60;99.90
23335;DHT22;11839;48.598;8.870;2023-02-18T09:25:48;13.70;99.90
23335;DHT22;11839;48.598;8.870;2023-02-18T09:28:15;13.50;99.90
23335;DHT22;11839;48.598;8.870;2023-02-18T09:30:41;13.50;99.90
23335;DHT22;11839;48.598;8.870;2023-02-18T09:33:08;13.80;99.90
23335;DHT22;11839;48.598;8.870;2023-02-18T09:35:38;13.90;99.90
23335;DHT22;11839;48.598;8.870;2023-02-18T09:38:06;14.00;99.90
23335;DHT22;11839;48.598;8.870;2023-02-18T09:40:34;14.00;99.90
23335;DHT22;11839;48.598;8.870;2023-02-18T09:43:03;14.10;99.90
23335;DHT22;11839;48.598;8.870;2023-02-18T09:45:30;14.40;99.90
23335;DHT22;11839;48.598;8.870;2023-02-18T09:47:57;14.20;99.90
23335;DHT22;11839;48.598;8.870;2023-02-18T09:50:26;14.10;99.90
23335;DHT22;11839;48.598;8.870;2023-02-18T09:52:54;14.00;99.90
23335;DHT22;11839;48.598;8.870;2023-02-18T09:55:28;14.00;99.90
23335;DHT22;11839;48.598;8.870;2023-02-18T09:57:57;14.10;99.90
23335;DHT22;11839;48.598;8.870;2023-02-18T10:00:29;14.40;99.90
23335;DHT22;11839;48.598;8.870;2023-02-18T10:03:00;14.40;99.90
23335;DHT22;11839;48.598;8.870;2023-02-18T10:05:29;14.30;99.90
23335;DHT22;11839;48.598;8.870;2023-02-18T10:08:00;14.20;99.90
23335;DHT22;11839;48.598;8.870;2023-02-18T10:10:36;14.20;99.90
23335;DHT22;11839;48.598;8.870;2023-02-18T10:13:05;14.00;99.90
23335;DHT22;11839;48.598;8.870;2023-02-18T10:15:33;14.00;99.90
23335;DHT22;11839;48.598;8.870;2023-02-18T10:18:01;14.30;99.90
23335;DHT22;11839;48.598;8.870;2023-02-18T10:20:29;14.40;99.90
23335;DHT22;11839;48.598;8.870;2023-02-18T10:23:00;14.70;99.90
23335;DHT22;11839;48.598;8.870;2023-02-18T10:25:32;14.60;99.90
23335;DHT22;11839;48.598;8.870;2023-02-18T10:27:59;14.40;99.90
23335;DHT22;11839;48.598;8.870;2023-02-18T10:32:34;14.10;99.90
23335;DHT22;11839;48.598;8.870;2023-02-18T10:35:14;14.10;99.90
23335;DHT22;11839;48.598;8.870;2023-02-18T10:37:53;14.30;99.90
23335;DHT22;11839;48.598;8.870;2023-02-18T10:40:28;14.50;99.90
23335;DHT22;11839;48.598;8.870;2023-02-18T10:43:05;14.10;99.90
23335;DHT22;11839;48.598;8.870;2023-02-18T10:45:43;14.10;99.90
23335;DHT22;11839;48.598;8.870;2023-02-18T10:48:44;14.10;99.90
23335;DHT22;11839;48.598;8.870;2023-02-18T10:51:15;14.20;99.90
23335;DHT22;11839;48.598;8.870;2023-02-18T10:53:45;14.30;99.90
23335;DHT22;11839;48.598;8.870;2023-02-18T10:56:37;14.30;99.90
23335;DHT22;11839;48.598;8.870;2023-02-18T10:59:12;14.60;99.90
23335;DHT22;11839;48.598;8.870;2023-02-18T11:01:39;14.80;99.90
23335;DHT22;11839;48.598;8.870;2023-02-18T11:04:15;14.70;99.90
23335;DHT22;11839;48.598;8.870;2023-02-18T11:06:45;14.80;99.90
23335;DHT22;11839;48.598;8.870;2023-02-18T11:09:39;14.70;99.90
23335;DHT22;11839;48.598;8.870;2023-02-18T11:12:13;14.60;99.90
23335;DHT22;11839;48.598;8.870;2023-02-18T11:14:42;14.80;99.90
23335;DHT22;11839;48.598;8.870;2023-02-18T11:17:18;15.10;99.90
23335;DHT22;11839;48.598;8.870;2023-02-18T11:19:54;14.70;99.90
23335;DHT22;11839;48.598;8.870;2023-02-18T11:22:23;14.80;99.90
23335;DHT22;11839;48.598;8.870;2023-02-18T11:24:54;14.80;99.90
23335;DHT22;11839;48.598;8.870;2023-02-18T11:27:25;14.70;99.90
23335;DHT22;11839;48.598;8.870;2023-02-18T11:29:56;14.80;99.90
23335;DHT22;11839;48.598;8.870;2023-02-18T11:32:26;14.70;99.90
23335;DHT22;11839;48.598;8.870;2023-02-18T11:34:55;14.70;99.90
23335;DHT22;11839;48.598;8.870;2023-02-18T11:37:23;14.70;99.90
23335;DHT22;11839;48.598;8.870;2023-02-18T11:39:53;14.70;99.90
23335;DHT22;11839;48.598;8.870;2023-02-18T11:42:22;14.60;99.90
23335;DHT22;11839;48.598;8.870;2023-02-18T11:44:52;14.70;99.90
23335;DHT22;11839;48.598;8.870;2023-02-18T11:47:23;15.00;99.90
23335;DHT22;11839;48.598;8.870;2023-02-18T11:50:16;14.80;99.90
23335;DHT22;11839;48.598;8.870;2023-02-18T11:52:45;14.60;99.90
23335;DHT22;11839;48.598;8.870;2023-02-18T11:55:16;14.50;99.90
23335;DHT22;11839;48.598;8.870;2023-02-18T11:57:45;14.50;99.90
23335;DHT22;11839;48.598;8.870;2023-02-18T12:00:22;14.40;99.90
23335;DHT22;11839;48.598;8.870;2023-02-18T12:02:50;14.60;99.90
23335;DHT22;11839;48.598;8.870;2023-02-18T12:05:21;14.60;99.90
23335;DHT22;11839;48.598;8.870;2023-02-18T12:07:50;14.50;99.90
23335;DHT22;11839;48.598;8.870;2023-02-18T12:10:24;14.50;99.90
23335;DHT22;11839;48.598;8.870;2023-02-18T12:12:57;14.50;99.90
23335;DHT22;11839;48.598;8.870;2023-02-18T12:15:33;14.40;99.90
23335;DHT22;11839;48.598;8.870;2023-02-18T12:18:32;14.70;99.90
23335;DHT22;11839;48.598;8.870;2023-02-18T12:21:27;14.80;99.90
23335;DHT22;11839;48.598;8.870;2023-02-18T12:24:01;14.70;99.90
23335;DHT22;11839;48.598;8.870;2023-02-18T12:26:37;14.80;99.90
23335;DHT22;11839;48.598;8.870;2023-02-18T12:29:21;14.80;99.90
23335;DHT22;11839;48.598;8.870;2023-02-18T12:32:04;14.80;99.90
23335;DHT22;11839;48.598;8.870;2023-02-18T12:34:42;14.70;99.90
23335;DHT22;11839;48.598;8.870;2023-02-18T12:43:16;14.70;99.90
23335;DHT22;11839;48.598;8.870;2023-02-18T12:46:01;15.00;99.90
23335;DHT22;11839;48.598;8.870;2023-02-18T12:48:44;14.80;99.90
23335;DHT22;11839;48.598;8.870;2023-02-18T12:51:27;15.00;99.90
23335;DHT22;11839;48.598;8.870;2023-02-18T12:54:17;14.90;99.90
23335;DHT22;11839;48.598;8.870;2023-02-18T12:57:13;14.70;99.90
23335;DHT22;11839;48.598;8.870;2023-02-18T13:00:17;14.80;99.90
23335;DHT22;11839;48.598;8.870;2023-02-18T13:03:07;14.60;99.90
23335;DHT22;11839;48.598;8.870;2023-02-18T13:05:40;14.60;99.90
23335;DHT22;11839;48.598;8.870;2023-02-18T13:08:25;14.80;99.90
23335;DHT22;11839;48.598;8.870;2023-02-18T13:11:07;14.80;99.90
23335;DHT22;11839;48.598;8.870;2023-02-18T13:13:41;15.00;99.90
23335;DHT22;11839;48.598;8.870;2023-02-18T13:16:10;14.90;99.90
23335;DHT22;11839;48.598;8.870;2023-02-18T13:18:41;14.90;99.90
23335;DHT22;11839;48.598;8.870;2023-02-18T13:21:11;14.90;99.90
23335;DHT22;11839;48.598;8.870;2023-02-18T13:23:42;15.00;99.90
23335;DHT22;11839;48.598;8.870;2023-02-18T13:26:13;15.00;99.90
23335;DHT22;11839;48.598;8.870;2023-02-18T13:28:45;14.90;99.90
23335;DHT22;11839;48.598;8.870;2023-02-18T13:31:25;14.90;99.90
23335;DHT22;11839;48.598;8.870;2023-02-18T13:33:56;15.00;99.90
23335;DHT22;11839;48.598;8.870;2023-02-18T13:36:43;15.00;99.90
23335;DHT22;11839;48.598;8.870;2023-02-18T13:39:14;15.00;99.90
23335;DHT22;11839;48.598;8.870;2023-02-18T13:41:47;15.20;99.90
23335;DHT22;11839;48.598;8.870;2023-02-18T13:45:00;15.50;99.90
23335;DHT22;11839;48.598;8.870;2023-02-18T13:47:36;15.60;99.90
23335;DHT22;11839;48.598;8.870;2023-02-18T13:50:22;15.30;99.90
23335;DHT22;11839;48.598;8.870;2023-02-18T13:52:58;15.20;99.90
23335;DHT22;11839;48.598;8.870;2023-02-18T13:55:34;15.40;99.90
23335;DHT22;11839;48.598;8.870;2023-02-18T13:58:11;15.30;99.90
23335;DHT22;11839;48.598;8.870;2023-02-18T14:00:40;15.50;99.90
23335;DHT22;11839;48.598;8.870;2023-02-18T14:03:27;15.40;99.90
23335;DHT22;11839;48.598;8.870;2023-02-18T14:05:57;15.20;99.90
23335;DHT22;11839;48.598;8.870;2023-02-18T14:08:30;15.10;99.90
23335;DHT22;11839;48.598;8.870;2023-02-18T14:14:32;15.00;99.90
23335;DHT22;11839;48.598;8.870;2023-02-18T14:17:31;15.20;99.90
23335;DHT22;11839;48.598;8.870;2023-02-18T14:20:28;15.50;99.90
23335;DHT22;11839;48.598;8.870;2023-02-18T14:22:56;15.50;99.70
23335;DHT22;11839;48.598;8.870;2023-02-18T14:25:34;15.60;99.90
23335;DHT22;11839;48.598;8.870;2023-02-18T14:28:03;15.30;99.90
23335;DHT22;11839;48.598;8.870;2023-02-18T14:30:43;15.50;99.60
23335;DHT22;11839;48.598;8.870;2023-02-18T14:33:14;15.60;99.50
23335;DHT22;11839;48.598;8.870;2023-02-18T14:35:46;15.20;99.40
23335;DHT22;11839;48.598;8.870;2023-02-18T14:38:29;14.90;99.40
23335;DHT22;11839;48.598;8.870;2023-02-18T14:41:19;15.00;99.70
23335;DHT22;11839;48.598;8.870;2023-02-18T14:44:06;15.20;99.70
23335;DHT22;11839;48.598;8.870;2023-02-18T14:46:43;15.20;99.70
23335;DHT22;11839;48.598;8.870;2023-02-18T14:49:35;15.10;99.80
23335;DHT22;11839;48.598;8.870;2023-02-18T14:52:04;15.30;99.90
23335;DHT22;11839;48.598;8.870;2023-02-18T14:54:32;15.10;99.90
23335;DHT22;11839;48.598;8.870;2023-02-18T14:57:03;15.10;99.90
23335;DHT22;11839;48.598;8.870;2023-02-18T14:59:33;14.90;99.90
23335;DHT22;11839;48.598;8.870;2023-02-18T15:02:02;15.30;99.90
23335;DHT22;11839;48.598;8.870;2023-02-18T15:04:29;15.10;99.90
23335;DHT22;11839;48.598;8.870;2023-02-18T15:07:01;15.00;99.90
23335;DHT22;11839;48.598;8.870;2023-02-18T15:09:28;15.00;99.90
23335;DHT22;11839;48.598;8.870;2023-02-18T15:11:58;15.10;99.90
23335;DHT22;11839;48.598;8.870;2023-02-18T15:14:29;15.10;99.90
23335;DHT22;11839;48.598;8.870;2023-02-18T15:16:57;15.10;99.90
23335;DHT22;11839;48.598;8.870;2023-02-18T15:19:29;15.10;99.90
23335;DHT22;11839;48.598;8.870;2023-02-18T15:21:58;15.00;99.90
23335;DHT22;11839;48.598;8.870;2023-02-18T15:24:29;14.90;99.90
23335;DHT22;11839;48.598;8.870;2023-02-18T15:26:59;14.90;99.90
23335;DHT22;11839;48.598;8.870;2023-02-18T15:29:27;14.80;99.90
23335;DHT22;11839;48.598;8.870;2023-02-18T15:31:56;15.20;99.90
23335;DHT22;11839;48.598;8.870;2023-02-18T15:34:34;15.20;99.90
23335;DHT22;11839;48.598;8.870;2023-02-18T15:37:02;15.00;99.90
23335;DHT22;11839;48.598;8.870;2023-02-18T15:39:30;14.80;99.90
23335;DHT22;11839;48.598;8.870;2023-02-18T15:41:59;14.70;99.90
23335;DHT22;11839;48.598;8.870;2023-02-18T15:44:29;14.50;99.90
23335;DHT22;11839;48.598;8.870;2023-02-18T15:46:59;14.40;99.90
23335;DHT22;11839;48.598;8.870;2023-02-18T15:49:27;14.30;99.90
23335;DHT22;11839;48.598;8.870;2023-02-18T15:51:57;14.40;99.90
23335;DHT22;11839;48.598;8.870;2023-02-18T15:54:26;14.40;99.90
23335;DHT22;11839;48.598;8.870;2023-02-18T15:56:55;14.50;99.90
23335;DHT22;11839;48.598;8.870;2023-02-18T15:59:25;14.40;99.90
23335;DHT22;11839;48.598;8.870;2023-02-18T16:01:54;14.40;99.90
23335;DHT22;11839;48.598;8.870;2023-02-18T16:04:23;14.60;99.90
23335;DHT22;11839;48.598;8.870;2023-02-18T16:06:51;14.60;99.90
23335;DHT22;11839;48.598;8.870;2023-02-18T16:09:24;14.40;99.90